Geelong, Australia

12:12 AM AEST on July 23, 2017 (GMT +1000)
Thomson, Geelong | | Change Station

Elev 66 ft 38.17 °S, 144.37 °E | Updated 46 minutes ago

Clear
Clear
48.7 °F
Feels Like 47 °F
N
4.3
Wind Variable Wind from NNE
Gusts 11.4 mph

Today
High -- | Low -- °F
--% Chance of Precip.
Yesterday
High -- | Low -- °F
Precip. -- in
Pressure 29.89 in
Visibility 6.2 miles
Clouds
Windchill 47 °F
Dew Point 39 °F
Humidity 70%
Rainfall --
Snow Depth Not available.
7:31 AM 5:27 PM
Waning Crescent, 1% visible
METAR YMAV 221400Z AUTO 01013KT 9999 // NCD 10/03 Q1012 RF00.0/000.0
Pressure 29.89 in
Visibility 6.2 miles
Clouds
Windchill 47 °F
Dew Point 39 °F
Humidity 70%
Rainfall --
Snow Depth Not available.
7:31 AM 5:27 PM
Waning Crescent, 1% visible
METAR YMAV 221400Z AUTO 01013KT 9999 // NCD 10/03 Q1012 RF00.0/000.0

Get Severe Weather Alerts

Thanks for signing up!

Be on the lookout for a verification email in your inbox.

You'll start receiving the daily forecast at 6 AM.

×

10-Day Weather Forecast

×

Almanac

Astronomy

Jul. 23, 2017 Rise Set
Actual Time
Civil Twilight
Nautical Twilight
Astronomical Twilight
Moon
Length of Visible Light
Length of Day
Tomorrow will be .
, % of the Moon is Illuminated

Today's Extremes

Country Highs Country Lows

Community

WunderPhotos

Category 6

Welcome to Category 6. This is the collective home for Weather Underground's featured writeups by Dr. Jeff Masters (right), Bob Henson (left), Chris Burt, and other regular contributors.

Nearby

Air Quality

  Air Quality AQ Index Pollutant
Not available.

Snow Depth

Station Depth Elevation

Earthquake Activity

City Distance Mag. Time & Date
Minimum magnitude displayed is 2.5.

Coastal Water Temperatures

Place Temperature

Stations

Nearby Weather Stations

Station Location Temp. Windchill Dew Point Humidity Wind Precip. Elev Updated Type